Time;durP1;ratioP1;P1;durP2;ratioP2;P2;SDS_P1;SDS_P2;PMS_P1;PMS_P2;Temp;Humidity;BMP_temperature;BMP_pressure;BME280_temperature;BME280_humidity;BME280_pressure;Samples;Min_cycle;Max_cycle;Signal;HPM_P1;HPM_P2
2022/07/20 00:01:41;;;;;;;11.75;3.42;;;;;;;;;;10560035;28;20535;-70
2022/07/20 00:06:46;;;;;;;7.97;3.33;;;;;;;;;;10562967;28;20090;-73
2022/07/20 00:11:50;;;;;;;8.63;3.33;;;;;;;;;;10560719;27;20044;-72
2022/07/20 00:16:53;;;;;;;6.60;3.30;;;;;;;;;;10561567;27;20058;-74
2022/07/20 00:21:58;;;;;;;7.72;2.90;;;;;;;;;;10559459;27;20629;-72
2022/07/20 00:27:00;;;;;;;6.40;2.70;;;;;;;;;;10552346;27;20032;-71
2022/07/20 00:32:03;;;;;;;7.00;3.33;;;;;;;;;;10561522;28;20130;-72
2022/07/20 00:37:07;;;;;;;6.45;2.85;;;;;;;;;;10556122;28;20031;-72
2022/07/20 00:42:11;;;;;;;5.32;2.88;;;;;;;;;;10559237;27;22159;-72
2022/07/20 00:47:14;;;;;;;7.85;2.95;;;;;;;;;;10560094;28;20479;-73
2022/07/20 00:52:20;;;;;;;7.97;3.08;;;;;;;;;;10561955;28;20070;-72
2022/07/20 00:57:24;;;;;;;9.18;3.00;;;;;;;;;;10560611;27;20170;-73
2022/07/20 01:02:26;;;;;;;;;;;;;;;;;;10564348;28;20567;-73
2022/07/20 01:07:31;;;;;;;5.80;2.97;;;;;;;;;;10559393;28;19955;-72
2022/07/20 01:12:34;;;;;;;6.65;2.97;;;;;;;;;;10561277;27;20035;-73
2022/07/20 01:17:57;;;;;;;5.70;2.80;;;;;;;;;;10559230;28;20047;-73
2022/07/20 01:23:02;;;;;;;11.45;3.17;;;;;;;;;;10557281;28;20062;-71
2022/07/20 01:28:11;;;;;;;6.55;3.08;;;;;;;;;;10560544;28;20055;-72
2022/07/20 01:33:22;;;;;;;5.55;2.85;;;;;;;;;;10561641;28;20059;-72
2022/07/20 01:38:46;;;;;;;5.70;2.92;;;;;;;;;;10561944;27;20039;-71
2022/07/20 01:43:55;;;;;;;11.90;3.38;;;;;;;;;;10569364;28;20413;-71
2022/07/20 01:48:58;;;;;;;8.17;3.50;;;;;;;;;;10574539;27;20028;-73
2022/07/20 01:54:02;;;;;;;6.78;2.75;;;;;;;;;;10566590;28;20350;-72
2022/07/20 01:59:05;;;;;;;5.03;2.78;;;;;;;;;;10567777;28;20056;-73
2022/07/20 02:04:08;;;;;;;4.88;2.88;;;;;;;;;;10567908;28;20081;-72
2022/07/20 02:09:12;;;;;;;7.28;2.97;;;;;;;;;;10562484;28;20047;-73
2022/07/20 02:14:15;;;;;;;8.77;3.20;;;;;;;;;;10566111;28;20420;-71
2022/07/20 02:19:19;;;;;;;7.43;3.10;;;;;;;;;;10568818;27;20043;-72
2022/07/20 02:24:23;;;;;;;7.20;2.92;;;;;;;;;;10568363;27;20518;-72
2022/07/20 02:29:26;;;;;;;8.43;3.55;;;;;;;;;;10567606;27;20063;-72
2022/07/20 02:34:30;;;;;;;10.77;3.00;;;;;;;;;;10561334;27;20039;-71
2022/07/20 02:39:34;;;;;;;5.38;3.13;;;;;;;;;;10566745;28;20054;-71
2022/07/20 02:44:36;;;;;;;8.35;2.90;;;;;;;;;;10564006;28;20074;-73
2022/07/20 02:49:39;;;;;;;5.95;3.10;;;;;;;;;;10565120;27;20062;-72
2022/07/20 02:54:44;;;;;;;5.88;3.30;;;;;;;;;;10568506;27;20415;-70
2022/07/20 02:59:47;;;;;;;7.22;3.35;;;;;;;;;;10567025;27;20705;-71
2022/07/20 03:04:50;;;;;;;7.90;3.80;;;;;;;;;;10558436;28;20056;-71
2022/07/20 03:09:54;;;;;;;6.18;3.45;;;;;;;;;;10565313;28;20558;-71
2022/07/20 03:14:57;;;;;;;11.32;3.22;;;;;;;;;;10560840;28;20069;-70
2022/07/20 03:20:00;;;;;;;6.72;3.30;;;;;;;;;;10560018;27;20063;-71
2022/07/20 03:25:04;;;;;;;7.57;3.80;;;;;;;;;;10563732;27;20051;-71
2022/07/20 03:30:08;;;;;;;6.55;3.55;;;;;;;;;;10566466;28;20495;-72
2022/07/20 03:35:11;;;;;;;9.77;3.33;;;;;;;;;;10561825;28;20448;-72
2022/07/20 03:40:15;;;;;;;6.75;3.58;;;;;;;;;;10568963;27;20039;-70
2022/07/20 03:45:18;;;;;;;8.00;3.58;;;;;;;;;;10560873;27;20043;-71
2022/07/20 03:50:29;;;;;;;9.20;3.60;;;;;;;;;;10560457;27;20036;-72
2022/07/20 03:55:34;;;;;;;9.70;4.50;;;;;;;;;;10563184;27;20040;-72
2022/07/20 04:00:37;;;;;;;7.47;3.17;;;;;;;;;;10556985;28;20031;-72
2022/07/20 04:05:40;;;;;;;5.75;3.30;;;;;;;;;;10556464;27;20059;-72
2022/07/20 04:10:44;;;;;;;7.70;3.13;;;;;;;;;;10565372;27;20040;-72
2022/07/20 04:15:51;;;;;;;7.80;4.38;;;;;;;;;;10561094;28;20541;-72
2022/07/20 04:20:54;;;;;;;7.90;3.45;;;;;;;;;;10563437;28;20342;-71
2022/07/20 04:26:00;;;;;;;7.22;3.58;;;;;;;;;;10559266;28;20043;-70
2022/07/20 04:31:02;;;;;;;7.38;3.80;;;;;;;;;;10564057;27;20036;-73
2022/07/20 04:36:06;;;;;;;6.95;3.85;;;;;;;;;;10561430;28;20447;-73
2022/07/20 04:41:10;;;;;;;7.70;4.18;;;;;;;;;;10559739;28;20451;-72
2022/07/20 04:46:12;;;;;;;7.80;3.75;;;;;;;;;;10564612;28;20038;-73
2022/07/20 04:51:15;;;;;;;7.00;4.18;;;;;;;;;;10558840;28;20040;-71
2022/07/20 04:56:19;;;;;;;;;;;;;;;;;;10563204;28;20039;-71
2022/07/20 05:01:24;;;;;;;8.77;4.68;;;;;;;;;;10559353;27;19945;-72
2022/07/20 05:06:27;;;;;;;8.65;4.60;;;;;;;;;;10549456;28;20067;-72
2022/07/20 05:11:30;;;;;;;7.40;4.38;;;;;;;;;;10555052;28;20670;-75
2022/07/20 05:16:35;;;;;;;6.95;3.50;;;;;;;;;;10556853;28;20031;-72
2022/07/20 05:21:38;;;;;;;8.30;4.07;;;;;;;;;;10555570;28;20353;-72
2022/07/20 05:26:41;;;;;;;;;;;;;;;;;;10554272;28;20406;-71
2022/07/20 05:31:45;;;;;;;7.72;5.05;;;;;;;;;;10557779;28;19924;-72
2022/07/20 05:36:47;;;;;;;10.75;4.80;;;;;;;;;;10552623;28;20039;-72
2022/07/20 05:41:50;;;;;;;;;;;;;;;;;;10554239;28;20122;-72
2022/07/20 05:46:55;;;;;;;10.73;4.50;;;;;;;;;;10554971;28;20299;-73
2022/07/20 05:51:58;;;;;;;9.38;5.30;;;;;;;;;;10557857;28;20468;-72
2022/07/20 05:57:01;;;;;;;9.10;5.07;;;;;;;;;;10550944;28;20043;-72
2022/07/20 06:02:06;;;;;;;11.75;5.53;;;;;;;;;;10557448;28;20499;-72
2022/07/20 06:07:10;;;;;;;13.07;6.25;;;;;;;;;;10553801;27;20134;-72
2022/07/20 06:12:13;;;;;;;11.00;5.28;;;;;;;;;;10554983;28;20404;-73
2022/07/20 06:17:18;;;;;;;9.95;5.57;;;;;;;;;;10557723;28;20035;-72
2022/07/20 06:22:21;;;;;;;10.75;4.97;;;;;;;;;;10555340;28;20408;-72
2022/07/20 06:27:24;;;;;;;;;;;;;;;;;;10560675;28;20040;-71
2022/07/20 06:32:28;;;;;;;11.88;5.82;;;;;;;;;;10565097;28;19984;-72
2022/07/20 06:37:32;;;;;;;12.63;5.30;;;;;;;;;;10568498;28;20063;-73
2022/07/20 06:42:35;;;;;;;9.52;5.38;;;;;;;;;;10565892;28;20028;-73
2022/07/20 06:47:39;;;;;;;11.73;5.50;;;;;;;;;;10562471;27;20070;-72
2022/07/20 06:52:43;;;;;;;10.07;5.50;;;;;;;;;;10568324;27;20043;-72
2022/07/20 06:57:45;;;;;;;;;;;;;;;;;;10560809;28;20040;-71
2022/07/20 07:02:50;;;;;;;9.35;5.88;;;;;;;;;;10554996;28;19956;-71
2022/07/20 07:07:53;;;;;;;12.27;6.10;;;;;;;;;;10563135;28;20062;-75
2022/07/20 07:12:56;;;;;;;13.10;6.07;;;;;;;;;;10561231;27;20040;-74
2022/07/20 07:18:00;;;;;;;11.80;5.57;;;;;;;;;;10565340;27;20096;-72
2022/07/20 07:23:03;;;;;;;12.65;5.45;;;;;;;;;;10560465;27;20175;-72
2022/07/20 07:28:06;;;;;;;;;;;;;;;;;;10559490;27;20032;-73
2022/07/20 07:33:10;;;;;;;11.27;5.07;;;;;;;;;;10552778;27;20023;-73
2022/07/20 07:38:13;;;;;;;10.05;6.20;;;;;;;;;;10567791;27;20289;-72
2022/07/20 07:43:17;;;;;;;10.00;5.97;;;;;;;;;;10559940;28;20066;-73
2022/07/20 07:48:21;;;;;;;8.57;6.15;;;;;;;;;;10560879;28;20735;-72
2022/07/20 07:53:24;;;;;;;8.52;5.55;;;;;;;;;;10565564;27;20043;-72
2022/07/20 07:58:27;;;;;;;11.10;6.40;;;;;;;;;;10559256;28;20048;-72
2022/07/20 08:03:32;;;;;;;11.27;6.60;;;;;;;;;;10559037;28;20066;-72
2022/07/20 08:08:35;;;;;;;9.98;6.68;;;;;;;;;;10553692;28;20035;-73
2022/07/20 08:13:37;;;;;;;13.15;6.75;;;;;;;;;;10562365;28;20461;-73
2022/07/20 08:18:42;;;;;;;9.63;6.47;;;;;;;;;;10553130;27;20040;-73
2022/07/20 08:23:45;;;;;;;8.55;6.30;;;;;;;;;;10554526;27;20084;-73
2022/07/20 08:28:48;;;;;;;12.07;7.10;;;;;;;;;;10562711;27;20123;-73
2022/07/20 08:33:52;;;;;;;15.70;6.97;;;;;;;;;;10560078;28;20440;-72
2022/07/20 08:38:56;;;;;;;8.88;6.20;;;;;;;;;;10558161;28;20059;-73
2022/07/20 08:43:59;;;;;;;9.80;6.38;;;;;;;;;;10559298;27;20123;-72
2022/07/20 08:49:03;;;;;;;14.00;7.20;;;;;;;;;;10562303;28;20058;-72
2022/07/20 08:54:07;;;;;;;8.15;6.57;;;;;;;;;;10553939;28;20098;-72
2022/07/20 08:59:10;;;;;;;7.97;6.45;;;;;;;;;;10558651;27;20036;-73
2022/07/20 09:04:15;;;;;;;8.88;6.43;;;;;;;;;;10560906;27;20023;-73
2022/07/20 09:09:18;;;;;;;9.95;6.60;;;;;;;;;;10555542;27;20074;-73
2022/07/20 09:14:40;;;;;;;11.00;6.90;;;;;;;;;;10559302;28;20059;-73
2022/07/20 09:20:05;;;;;;;10.13;7.90;;;;;;;;;;10562896;28;20036;-71
2022/07/20 09:25:09;;;;;;;8.95;6.95;;;;;;;;;;10555530;28;20055;-73
2022/07/20 09:30:14;;;;;;;7.43;6.22;;;;;;;;;;10568808;28;20491;-71
2022/07/20 09:35:20;;;;;;;8.50;6.60;;;;;;;;;;10563877;28;20043;-72
2022/07/20 09:40:39;;;;;;;10.07;7.10;;;;;;;;;;10559681;28;20035;-72
2022/07/20 09:45:43;;;;;;;7.75;6.95;;;;;;;;;;10563176;28;20043;-73
2022/07/20 09:50:48;;;;;;;9.35;7.00;;;;;;;;;;10563199;28;20071;-73
2022/07/20 09:55:52;;;;;;;9.05;7.15;;;;;;;;;;10554385;28;20085;-72
2022/07/20 10:00:55;;;;;;;8.97;7.43;;;;;;;;;;10563289;28;20433;-72
2022/07/20 10:06:08;;;;;;;11.88;8.75;;;;;;;;;;10564814;27;20039;-71
2022/07/20 10:11:11;;;;;;;11.13;7.53;;;;;;;;;;10566387;28;20051;-72
2022/07/20 10:16:17;;;;;;;9.35;7.90;;;;;;;;;;10565067;28;20388;-72
2022/07/20 10:21:35;;;;;;;13.35;8.05;;;;;;;;;;10567093;27;20024;-72
2022/07/20 10:26:37;;;;;;;9.02;8.23;;;;;;;;;;10562346;28;20694;-72
2022/07/20 10:31:48;;;;;;;7.88;7.25;;;;;;;;;;10566880;28;20086;-73
2022/07/20 10:42:24;;;;;;;9.05;7.90;;;;;;;;;;10641999;27;20425;-72
2022/07/20 10:47:43;;;;;;;9.82;7.03;;;;;;;;;;10567087;28;20044;-73
2022/07/20 10:52:53;;;;;;;8.00;6.90;;;;;;;;;;10556767;28;20066;-72
2022/07/20 10:57:57;;;;;;;10.77;7.05;;;;;;;;;;10589531;27;20035;-73
2022/07/20 11:03:01;;;;;;;10.45;6.72;;;;;;;;;;10553484;28;20036;-71
2022/07/20 11:08:05;;;;;;;7.63;6.90;;;;;;;;;;10556763;28;20411;-73
2022/07/20 11:13:09;;;;;;;12.93;6.82;;;;;;;;;;10557454;28;20044;-73
2022/07/20 11:18:12;;;;;;;10.02;7.47;;;;;;;;;;10553838;28;20044;-72
2022/07/20 11:23:16;;;;;;;11.93;6.18;;;;;;;;;;10589410;27;20066;-72
2022/07/20 11:28:25;;;;;;;8.30;5.70;;;;;;;;;;10557116;28;20046;-73
2022/07/20 11:33:31;;;;;;;9.02;6.50;;;;;;;;;;10559308;28;20115;-72
2022/07/20 11:38:35;;;;;;;8.18;5.80;;;;;;;;;;10550398;28;20043;-73
2022/07/20 11:43:39;;;;;;;8.70;5.57;;;;;;;;;;10556032;28;20067;-73
2022/07/20 11:48:43;;;;;;;8.00;5.45;;;;;;;;;;10554083;28;20043;-73
2022/07/20 11:54:06;;;;;;;8.57;6.05;;;;;;;;;;10523361;28;20331;-72
2022/07/20 11:59:13;;;;;;;9.73;5.10;;;;;;;;;;10525628;28;20450;-72
2022/07/20 12:04:17;;;;;;;6.47;5.07;;;;;;;;;;10546898;27;20060;-73
2022/07/20 12:09:21;;;;;;;6.57;4.95;;;;;;;;;;10528754;28;20110;-73
2022/07/20 12:14:30;;;;;;;7.25;4.75;;;;;;;;;;10527817;28;20051;-73
2022/07/20 12:19:54;;;;;;;8.02;5.03;;;;;;;;;;10529326;28;20563;-72
2022/07/20 12:24:57;;;;;;;6.45;4.90;;;;;;;;;;10523422;28;20047;-71
2022/07/20 12:30:21;;;;;;;7.13;4.60;;;;;;;;;;10527090;28;20095;-72
2022/07/20 12:35:24;;;;;;;7.63;4.90;;;;;;;;;;10523356;28;20515;-73
2022/07/20 12:40:31;;;;;;;9.25;5.20;;;;;;;;;;10521940;28;20083;-73
2022/07/20 12:45:35;;;;;;;6.38;4.95;;;;;;;;;;10527755;28;20044;-72
2022/07/20 12:50:38;;;;;;;9.60;5.00;;;;;;;;;;10524974;28;20032;-73
2022/07/20 12:55:41;;;;;;;10.20;4.40;;;;;;;;;;10522707;28;20074;-73
2022/07/20 13:00:45;;;;;;;6.45;4.55;;;;;;;;;;10525299;28;20051;-72
2022/07/20 13:05:47;;;;;;;6.03;4.00;;;;;;;;;;10521333;28;20043;-73
2022/07/20 13:10:50;;;;;;;8.25;4.57;;;;;;;;;;10525337;28;20149;-71
2022/07/20 13:15:55;;;;;;;9.50;4.32;;;;;;;;;;10525337;28;20044;-72
2022/07/20 13:20:58;;;;;;;9.65;4.45;;;;;;;;;;10520639;28;20056;-72
2022/07/20 13:26:01;;;;;;;7.93;4.32;;;;;;;;;;10547936;27;20047;-72
2022/07/20 13:31:09;;;;;;;5.82;3.95;;;;;;;;;;10524085;28;20066;-73
2022/07/20 13:36:32;;;;;;;9.00;4.30;;;;;;;;;;10555533;27;20044;-73
2022/07/20 13:41:35;;;;;;;7.43;4.05;;;;;;;;;;10548899;27;20120;-72
2022/07/20 13:46:39;;;;;;;6.90;3.72;;;;;;;;;;10525353;28;20036;-72
2022/07/20 13:51:45;;;;;;;5.20;3.38;;;;;;;;;;10523047;28;20032;-71
2022/07/20 13:57:09;;;;;;;8.00;3.63;;;;;;;;;;10521284;28;20039;-71
2022/07/20 14:02:13;;;;;;;7.47;4.18;;;;;;;;;;10522550;28;20399;-74
2022/07/20 14:07:16;;;;;;;7.40;3.75;;;;;;;;;;10523931;28;20043;-73
2022/07/20 14:12:19;;;;;;;9.05;5.40;;;;;;;;;;10522972;28;20024;-72
2022/07/20 14:17:25;;;;;;;5.65;3.53;;;;;;;;;;10525115;28;20035;-72
2022/07/20 14:22:28;;;;;;;7.88;3.65;;;;;;;;;;10515931;28;20031;-73
2022/07/20 14:27:32;;;;;;;6.55;3.25;;;;;;;;;;10524311;28;20028;-72
2022/07/20 14:32:36;;;;;;;6.55;3.58;;;;;;;;;;10552076;27;20044;-73
2022/07/20 14:37:39;;;;;;;11.55;3.72;;;;;;;;;;10524092;28;20064;-72
2022/07/20 14:42:41;;;;;;;6.70;3.58;;;;;;;;;;10520989;28;20043;-72
2022/07/20 14:47:47;;;;;;;6.25;3.40;;;;;;;;;;10524062;28;20040;-72
2022/07/20 14:52:49;;;;;;;6.18;3.50;;;;;;;;;;10553483;28;20591;-71
2022/07/20 14:57:53;;;;;;;6.55;3.70;;;;;;;;;;10515045;28;20044;-72
2022/07/20 15:02:57;;;;;;;4.65;3.58;;;;;;;;;;10550063;28;20508;-72
2022/07/20 15:08:00;;;;;;;7.63;3.72;;;;;;;;;;10551612;27;20033;-71
2022/07/20 15:13:04;;;;;;;8.82;3.92;;;;;;;;;;10519501;28;20029;-72
2022/07/20 15:18:09;;;;;;;9.18;3.92;;;;;;;;;;10520728;28;20093;-71
2022/07/20 15:23:12;;;;;;;7.82;3.72;;;;;;;;;;10521151;28;20055;-72
2022/07/20 15:28:16;;;;;;;9.25;3.55;;;;;;;;;;10529165;28;20032;-72
2022/07/20 15:33:20;;;;;;;9.15;3.45;;;;;;;;;;10559073;27;20036;-71
2022/07/20 15:38:23;;;;;;;8.25;3.60;;;;;;;;;;10527639;28;20044;-72
2022/07/20 15:43:25;;;;;;;10.38;4.03;;;;;;;;;;10528748;28;20028;-72
2022/07/20 15:48:29;;;;;;;9.85;3.50;;;;;;;;;;10527804;28;20562;-72
2022/07/20 15:53:32;;;;;;;8.85;3.97;;;;;;;;;;10528222;28;20069;-72
2022/07/20 15:58:36;;;;;;;9.10;4.68;;;;;;;;;;10529522;28;20039;-73
2022/07/20 16:03:40;;;;;;;8.18;4.30;;;;;;;;;;10524119;28;20049;-72
2022/07/20 16:08:43;;;;;;;6.32;3.47;;;;;;;;;;10524837;28;20044;-71
2022/07/20 16:13:46;;;;;;;9.68;4.10;;;;;;;;;;10526097;28;20028;-72
2022/07/20 16:18:50;;;;;;;6.75;3.83;;;;;;;;;;10523749;28;20109;-72
2022/07/20 16:23:53;;;;;;;8.63;3.97;;;;;;;;;;10524775;28;20048;-71
2022/07/20 16:28:56;;;;;;;7.78;4.07;;;;;;;;;;10525424;28;20119;-70
2022/07/20 16:34:01;;;;;;;5.75;3.47;;;;;;;;;;10549229;27;20231;-71
2022/07/20 16:39:04;;;;;;;8.07;4.10;;;;;;;;;;10526352;28;20032;-73
2022/07/20 16:44:07;;;;;;;7.85;4.63;;;;;;;;;;10526420;28;20131;-72
2022/07/20 16:49:11;;;;;;;10.15;4.60;;;;;;;;;;10527568;28;20040;-71
2022/07/20 16:54:22;;;;;;;8.07;3.65;;;;;;;;;;10524782;28;20064;-72
2022/07/20 16:59:24;;;;;;;11.95;4.40;;;;;;;;;;10527467;28;20529;-72
2022/07/20 17:04:28;;;;;;;8.50;5.07;;;;;;;;;;10527768;28;20066;-73
2022/07/20 17:09:31;;;;;;;9.07;4.95;;;;;;;;;;10526881;28;20032;-71
2022/07/20 17:14:34;;;;;;;11.40;6.78;;;;;;;;;;10526167;28;20036;-72
2022/07/20 17:19:38;;;;;;;9.30;4.05;;;;;;;;;;10557748;27;20044;-72
2022/07/20 17:24:40;;;;;;;10.43;4.47;;;;;;;;;;10520330;28;20500;-72
2022/07/20 17:29:47;;;;;;;8.50;4.30;;;;;;;;;;10523273;28;20040;-72
2022/07/20 17:34:52;;;;;;;7.85;4.50;;;;;;;;;;10517254;28;20036;-71
2022/07/20 17:39:55;;;;;;;18.00;9.00;;;;;;;;;;10523560;28;20380;-70
2022/07/20 17:44:58;;;;;;;10.25;4.70;;;;;;;;;;10521846;28;20083;-70
2022/07/20 17:50:02;;;;;;;11.40;6.22;;;;;;;;;;10519225;28;20058;-72
2022/07/20 17:55:05;;;;;;;8.75;5.30;;;;;;;;;;10523471;28;20480;-72
2022/07/20 18:00:15;;;;;;;12.52;7.57;;;;;;;;;;10524185;28;20042;-71
2022/07/20 18:05:19;;;;;;;10.60;5.10;;;;;;;;;;10523869;28;20039;-73
2022/07/20 18:10:22;;;;;;;10.25;4.93;;;;;;;;;;10520456;28;20036;-73
2022/07/20 18:15:25;;;;;;;13.95;4.85;;;;;;;;;;10522594;28;20048;-73
2022/07/20 18:20:30;;;;;;;12.32;5.03;;;;;;;;;;10520611;28;20131;-73
2022/07/20 18:25:33;;;;;;;13.35;5.85;;;;;;;;;;10520975;28;20052;-73
2022/07/20 18:30:36;;;;;;;9.90;5.15;;;;;;;;;;10519258;28;20085;-71
2022/07/20 18:35:40;;;;;;;9.05;4.32;;;;;;;;;;10519230;28;20091;-72
2022/07/20 18:40:42;;;;;;;10.70;4.35;;;;;;;;;;10521259;28;20035;-73
2022/07/20 18:45:57;;;;;;;10.85;4.97;;;;;;;;;;10521969;28;20547;-72
2022/07/20 18:51:10;;;;;;;11.23;5.22;;;;;;;;;;10521834;28;20097;-72
2022/07/20 18:56:14;;;;;;;13.63;6.20;;;;;;;;;;10519499;28;20058;-72
2022/07/20 19:01:16;;;;;;;13.85;5.60;;;;;;;;;;10522797;28;20036;-72
2022/07/20 19:06:20;;;;;;;11.63;6.22;;;;;;;;;;10530429;28;20118;-71
2022/07/20 19:11:23;;;;;;;14.32;7.43;;;;;;;;;;10529966;28;20051;-72
2022/07/20 19:16:26;;;;;;;13.27;6.57;;;;;;;;;;10530211;28;20032;-71
2022/07/20 19:21:30;;;;;;;20.77;11.80;;;;;;;;;;10558325;27;20068;-71
2022/07/20 19:26:33;;;;;;;11.38;6.32;;;;;;;;;;10528385;28;20043;-70
2022/07/20 19:31:36;;;;;;;11.00;7.10;;;;;;;;;;10526125;28;20056;-71
2022/07/20 19:36:40;;;;;;;15.63;9.18;;;;;;;;;;10528118;28;20038;-71
2022/07/20 19:41:44;;;;;;;12.23;7.45;;;;;;;;;;10529099;28;20044;-71
2022/07/20 19:46:46;;;;;;;10.55;5.95;;;;;;;;;;10526059;28;20052;-72
2022/07/20 19:51:50;;;;;;;11.68;7.18;;;;;;;;;;10524701;28;20071;-72
2022/07/20 19:56:53;;;;;;;11.75;7.30;;;;;;;;;;10528331;28;20032;-72
2022/07/20 20:01:56;;;;;;;16.42;9.93;;;;;;;;;;10525976;28;20062;-73
2022/07/20 20:07:00;;;;;;;11.45;6.97;;;;;;;;;;10542593;27;20040;-71
2022/07/20 20:12:05;;;;;;;13.93;8.85;;;;;;;;;;10526196;28;20687;-71
2022/07/20 20:17:08;;;;;;;12.90;8.98;;;;;;;;;;10525773;28;20055;-73
2022/07/20 20:22:12;;;;;;;10.50;7.53;;;;;;;;;;10524662;28;20036;-72
2022/07/20 20:27:15;;;;;;;13.32;8.77;;;;;;;;;;10528394;28;20032;-73
2022/07/20 20:32:18;;;;;;;10.98;7.65;;;;;;;;;;10545095;27;20039;-73
2022/07/20 20:37:22;;;;;;;19.55;9.65;;;;;;;;;;10527082;28;20047;-72
2022/07/20 20:42:26;;;;;;;27.33;11.48;;;;;;;;;;10524069;28;20028;-73
2022/07/20 20:47:29;;;;;;;24.85;11.32;;;;;;;;;;10526533;28;20068;-72
2022/07/20 20:52:33;;;;;;;27.90;11.82;;;;;;;;;;10524190;28;20047;-73
2022/07/20 20:57:36;;;;;;;31.75;11.32;;;;;;;;;;10525578;28;20067;-73
2022/07/20 21:02:39;;;;;;;28.63;11.32;;;;;;;;;;10519561;28;20385;-72
2022/07/20 21:07:44;;;;;;;24.25;11.10;;;;;;;;;;10525291;28;20040;-73
2022/07/20 21:12:49;;;;;;;23.15;8.68;;;;;;;;;;10523796;28;20087;-73
2022/07/20 21:17:51;;;;;;;21.50;7.55;;;;;;;;;;10525525;28;20055;-71
2022/07/20 21:22:55;;;;;;;12.18;6.70;;;;;;;;;;10516922;28;20044;-71
2022/07/20 21:28:06;;;;;;;24.67;6.88;;;;;;;;;;10520739;28;20129;-71
2022/07/20 21:33:09;;;;;;;17.83;6.35;;;;;;;;;;10523867;28;20052;-71
2022/07/20 21:38:13;;;;;;;11.00;4.55;;;;;;;;;;10519575;28;20052;-72
2022/07/20 21:43:16;;;;;;;6.82;3.25;;;;;;;;;;10523314;28;20068;-71
2022/07/20 21:48:19;;;;;;;5.55;2.60;;;;;;;;;;10525922;28;20066;-71
2022/07/20 21:53:21;;;;;;;;;;;;;;;;;;10523973;28;20043;-72
2022/07/20 21:58:25;;;;;;;5.15;2.95;;;;;;;;;;10526042;28;19973;-73
2022/07/20 22:03:28;;;;;;;6.60;2.90;;;;;;;;;;10520745;28;20067;-71
2022/07/20 22:08:32;;;;;;;7.78;3.63;;;;;;;;;;10519427;28;20052;-71
2022/07/20 22:13:36;;;;;;;7.75;3.35;;;;;;;;;;10515095;28;20036;-71
2022/07/20 22:18:41;;;;;;;6.40;2.55;;;;;;;;;;10522833;28;20044;-71
2022/07/20 22:23:43;;;;;;;8.95;3.00;;;;;;;;;;10520450;28;20055;-72
2022/07/20 22:28:48;;;;;;;5.05;2.70;;;;;;;;;;10525414;28;20123;-73
2022/07/20 22:33:51;;;;;;;6.05;2.55;;;;;;;;;;10521966;28;20679;-72
2022/07/20 22:38:54;;;;;;;5.82;2.50;;;;;;;;;;10542737;27;20102;-73
2022/07/20 22:43:59;;;;;;;3.28;2.15;;;;;;;;;;10521435;28;20507;-72
2022/07/20 22:49:01;;;;;;;5.28;2.40;;;;;;;;;;10522725;28;20523;-72
2022/07/20 22:54:04;;;;;;;4.00;2.35;;;;;;;;;;10522681;28;20047;-72
2022/07/20 22:59:11;;;;;;;4.45;2.50;;;;;;;;;;10518005;28;20028;-73
2022/07/20 23:04:13;;;;;;;4.65;2.38;;;;;;;;;;10522913;28;20055;-74
2022/07/20 23:09:16;;;;;;;5.13;2.53;;;;;;;;;;10512972;28;20040;-72
2022/07/20 23:14:20;;;;;;;6.07;2.53;;;;;;;;;;10515412;28;20059;-72
2022/07/20 23:19:23;;;;;;;5.22;2.80;;;;;;;;;;10518680;28;20048;-71
2022/07/20 23:24:27;;;;;;;4.85;3.00;;;;;;;;;;10514558;28;20036;-71
2022/07/20 23:29:31;;;;;;;9.98;2.67;;;;;;;;;;10519872;28;20062;-71
2022/07/20 23:34:34;;;;;;;6.43;3.35;;;;;;;;;;10514711;28;20043;-71
2022/07/20 23:39:36;;;;;;;14.55;3.95;;;;;;;;;;10519612;28;20074;-71
2022/07/20 23:44:58;;;;;;;7.78;3.90;;;;;;;;;;10517824;28;20093;-72
2022/07/20 23:50:02;;;;;;;10.10;3.92;;;;;;;;;;10527095;28;20044;-73
2022/07/20 23:55:05;;;;;;;10.05;3.83;;;;;;;;;;10522551;28;20385;-72
